RYR82JL LATI-LIRA
Flight info
| Callsign | RYR82JL |
|---|---|
| Flight time | 1h 14m |
| Altitude | 34000 |
| Route | DIRES DCT PAPIZ DCT OKIMO/N0461F350 DCT DOGUS/N0461F360 DCT EKTOL DCT AMSOR DCT IPKAM DCT TEA DCT ALAXI |
| Aircraft | B738/M-SDE2E3FGHIRWXY/LB1 |
Departure
| Time | 2026-04-30 21:04 |
|---|---|
| Airport | Tirana International Airport Mother Teresa (LATI) |
Arrival
| Time | 2026-04-30 22:18 |
|---|---|
| Airport | Ciampino–G. B. Pastine International Airport (LIRA) |
| Time | Latitude | Longitude | Altitude | Speed | Heading |
|---|---|---|---|---|---|
| 2026-04-30 20:36 | 41.41872 | 19.71531 | 115 ft | 0 kts | 263° |
| 2026-04-30 20:50 | 41.41873 | 19.71539 | 115 ft | 2 kts | 263° |
| 2026-04-30 20:51 | 41.41875 | 19.71559 | 115 ft | 2 kts | 263° |
| 2026-04-30 20:51 | 41.41893 | 19.71593 | 114 ft | 2 kts | 180° |
| 2026-04-30 20:51 | 41.41908 | 19.71589 | 114 ft | 2 kts | 172° |
| 2026-04-30 20:52 | 41.41917 | 19.71588 | 114 ft | 0 kts | 176° |
| 2026-04-30 20:54 | 41.41911 | 19.71589 | 114 ft | 3 kts | 176° |
| 2026-04-30 20:54 | 41.41876 | 19.71594 | 115 ft | 7 kts | 174° |
| 2026-04-30 20:54 | 41.41838 | 19.71598 | 115 ft | 4 kts | 175° |
| 2026-04-30 20:55 | 41.41784 | 19.71605 | 115 ft | 5 kts | 175° |
| 2026-04-30 20:55 | 41.41737 | 19.71611 | 115 ft | 8 kts | 175° |
| 2026-04-30 20:55 | 41.41685 | 19.71617 | 115 ft | 7 kts | 174° |
| 2026-04-30 20:56 | 41.41608 | 19.71629 | 117 ft | 6 kts | 174° |
| 2026-04-30 20:56 | 41.41576 | 19.71633 | 117 ft | 3 kts | 174° |
| 2026-04-30 20:56 | 41.41508 | 19.71642 | 118 ft | 7 kts | 174° |
| 2026-04-30 20:57 | 41.41444 | 19.71650 | 119 ft | 11 kts | 175° |
| 2026-04-30 20:57 | 41.41353 | 19.71662 | 119 ft | 14 kts | 174° |
| 2026-04-30 20:57 | 41.41264 | 19.71674 | 120 ft | 12 kts | 174° |
| 2026-04-30 20:58 | 41.41134 | 19.71691 | 122 ft | 7 kts | 174° |
| 2026-04-30 20:58 | 41.41085 | 19.71697 | 122 ft | 6 kts | 174° |
| 2026-04-30 20:58 | 41.41032 | 19.71704 | 122 ft | 9 kts | 174° |
| 2026-04-30 20:58 | 41.40951 | 19.71717 | 122 ft | 14 kts | 171° |
| 2026-04-30 20:59 | 41.40768 | 19.71758 | 122 ft | 12 kts | 173° |
| 2026-04-30 20:59 | 41.40687 | 19.71769 | 122 ft | 11 kts | 174° |
| 2026-04-30 21:00 | 41.40556 | 19.71787 | 123 ft | 7 kts | 174° |
| 2026-04-30 21:00 | 41.40489 | 19.71796 | 125 ft | 5 kts | 175° |
| 2026-04-30 21:01 | 41.40368 | 19.71847 | 125 ft | 14 kts | 144° |
| 2026-04-30 21:01 | 41.40284 | 19.71930 | 126 ft | 14 kts | 143° |
| 2026-04-30 21:01 | 41.40251 | 19.72142 | 128 ft | 10 kts | 84° |
| 2026-04-30 21:02 | 41.40277 | 19.72208 | 128 ft | 8 kts | 4° |
| 2026-04-30 21:02 | 41.40294 | 19.72208 | 128 ft | 0 kts | 356° |
| 2026-04-30 21:03 | 41.40310 | 19.72207 | 128 ft | 7 kts | 356° |
| 2026-04-30 21:03 | 41.40538 | 19.72178 | 125 ft | 67 kts | 355° |
| 2026-04-30 21:03 | 41.41209 | 19.72089 | 122 ft | 128 kts | 355° |
| 2026-04-30 21:03 | 41.42268 | 19.71950 | 191 ft | 171 kts | 354° |
| 2026-04-30 21:04 | 41.43403 | 19.71748 | 1054 ft | 159 kts | 353° |
| 2026-04-30 21:04 | 41.44471 | 19.71547 | 1624 ft | 167 kts | 356° |
| 2026-04-30 21:04 | 41.46767 | 19.71328 | 2773 ft | 172 kts | 2° |
| 2026-04-30 21:05 | 41.47957 | 19.71231 | 3157 ft | 187 kts | 0° |
| 2026-04-30 21:05 | 41.49286 | 19.71072 | 3522 ft | 205 kts | 359° |
| 2026-04-30 21:05 | 41.50712 | 19.70883 | 3956 ft | 220 kts | 358° |
| 2026-04-30 21:05 | 41.52237 | 19.70680 | 4500 ft | 230 kts | 358° |
| 2026-04-30 21:06 | 41.53742 | 19.70479 | 5265 ft | 229 kts | 358° |
| 2026-04-30 21:06 | 41.55308 | 19.70273 | 6003 ft | 231 kts | 358° |
| 2026-04-30 21:06 | 41.56907 | 19.70068 | 6503 ft | 243 kts | 358° |
| 2026-04-30 21:06 | 41.58604 | 19.69852 | 6965 ft | 257 kts | 358° |
| 2026-04-30 21:07 | 41.60358 | 19.69621 | 7500 ft | 267 kts | 356° |
| 2026-04-30 21:07 | 41.62111 | 19.69006 | 8175 ft | 274 kts | 337° |
| 2026-04-30 21:07 | 41.63676 | 19.67591 | 8910 ft | 278 kts | 319° |
| 2026-04-30 21:07 | 41.64938 | 19.65697 | 9650 ft | 280 kts | 308° |
| 2026-04-30 21:08 | 41.65857 | 19.63483 | 10342 ft | 284 kts | 291° |
| 2026-04-30 21:08 | 41.66175 | 19.60878 | 11050 ft | 289 kts | 271° |
| 2026-04-30 21:08 | 41.65941 | 19.58285 | 11723 ft | 294 kts | 259° |
| 2026-04-30 21:08 | 41.65235 | 19.55725 | 12397 ft | 301 kts | 243° |
| 2026-04-30 21:09 | 41.63942 | 19.53672 | 13061 ft | 307 kts | 222° |
| 2026-04-30 21:09 | 41.62194 | 19.52210 | 13711 ft | 313 kts | 207° |
| 2026-04-30 21:09 | 41.60200 | 19.51330 | 14339 ft | 319 kts | 191° |
| 2026-04-30 21:09 | 41.58009 | 19.51379 | 15012 ft | 324 kts | 171° |
| 2026-04-30 21:10 | 41.55846 | 19.52028 | 15644 ft | 328 kts | 167° |
| 2026-04-30 21:10 | 41.53666 | 19.52776 | 16260 ft | 332 kts | 167° |
| 2026-04-30 21:10 | 41.51408 | 19.53547 | 16878 ft | 336 kts | 168° |
| 2026-04-30 21:10 | 41.49151 | 19.54293 | 17524 ft | 338 kts | 169° |
| 2026-04-30 21:11 | 41.46928 | 19.55006 | 18092 ft | 342 kts | 169° |
| 2026-04-30 21:11 | 41.44672 | 19.55718 | 18667 ft | 346 kts | 169° |
| 2026-04-30 21:11 | 41.42399 | 19.56433 | 19229 ft | 349 kts | 170° |
| 2026-04-30 21:11 | 41.40109 | 19.57151 | 19780 ft | 353 kts | 171° |
| 2026-04-30 21:12 | 41.37815 | 19.57800 | 20329 ft | 354 kts | 175° |
| 2026-04-30 21:12 | 41.35488 | 19.58145 | 20931 ft | 351 kts | 184° |
| 2026-04-30 21:12 | 41.33180 | 19.57984 | 21451 ft | 348 kts | 194° |
| 2026-04-30 21:12 | 41.30973 | 19.57378 | 22037 ft | 343 kts | 202° |
| 2026-04-30 21:13 | 41.28826 | 19.56451 | 22559 ft | 342 kts | 207° |
| 2026-04-30 21:13 | 41.26819 | 19.55268 | 23046 ft | 339 kts | 215° |
| 2026-04-30 21:13 | 41.24912 | 19.53661 | 23599 ft | 334 kts | 224° |
| 2026-04-30 21:13 | 41.23209 | 19.51731 | 24106 ft | 330 kts | 230° |
| 2026-04-30 21:14 | 41.21730 | 19.49623 | 24563 ft | 327 kts | 238° |
| 2026-04-30 21:14 | 41.20594 | 19.47251 | 24892 ft | 325 kts | 249° |
| 2026-04-30 21:14 | 41.19860 | 19.44646 | 25005 ft | 331 kts | 260° |
| 2026-04-30 21:14 | 41.19482 | 19.41851 | 25111 ft | 340 kts | 265° |
| 2026-04-30 21:15 | 41.19201 | 19.38949 | 25490 ft | 342 kts | 265° |
| 2026-04-30 21:15 | 41.18869 | 19.36056 | 25988 ft | 343 kts | 264° |
| 2026-04-30 21:15 | 41.18475 | 19.33170 | 26384 ft | 346 kts | 262° |
| 2026-04-30 21:15 | 41.18023 | 19.30264 | 26842 ft | 347 kts | 261° |
| 2026-04-30 21:16 | 41.17526 | 19.27334 | 27306 ft | 347 kts | 261° |
| 2026-04-30 21:16 | 41.17012 | 19.24459 | 27752 ft | 348 kts | 261° |
| 2026-04-30 21:16 | 41.16479 | 19.21571 | 28144 ft | 349 kts | 261° |
| 2026-04-30 21:16 | 41.15926 | 19.18632 | 28578 ft | 349 kts | 260° |
| 2026-04-30 21:17 | 41.15363 | 19.15688 | 28954 ft | 351 kts | 261° |
| 2026-04-30 21:17 | 41.14773 | 19.12615 | 29329 ft | 352 kts | 261° |
| 2026-04-30 21:17 | 41.14176 | 19.09522 | 29792 ft | 351 kts | 261° |
| 2026-04-30 21:17 | 41.13619 | 19.06643 | 30094 ft | 353 kts | 261° |
| 2026-04-30 21:18 | 41.13018 | 19.03542 | 30507 ft | 353 kts | 261° |
| 2026-04-30 21:18 | 41.12441 | 19.00555 | 30722 ft | 357 kts | 261° |
| 2026-04-30 21:18 | 41.11853 | 18.97531 | 31033 ft | 359 kts | 261° |
| 2026-04-30 21:18 | 41.11271 | 18.94532 | 31230 ft | 363 kts | 260° |
| 2026-04-30 21:19 | 41.10675 | 18.91471 | 31543 ft | 364 kts | 261° |
| 2026-04-30 21:19 | 41.10068 | 18.88363 | 31822 ft | 366 kts | 260° |
| 2026-04-30 21:19 | 41.09460 | 18.85256 | 32074 ft | 368 kts | 260° |
| 2026-04-30 21:19 | 41.08851 | 18.82141 | 32316 ft | 371 kts | 260° |
| 2026-04-30 21:20 | 41.08229 | 18.78976 | 32625 ft | 371 kts | 260° |
| 2026-04-30 21:20 | 41.07604 | 18.75793 | 32827 ft | 375 kts | 260° |
| 2026-04-30 21:20 | 41.06972 | 18.72582 | 33060 ft | 377 kts | 260° |
| 2026-04-30 21:20 | 41.06331 | 18.69334 | 33309 ft | 379 kts | 260° |
| 2026-04-30 21:21 | 41.05691 | 18.66089 | 33522 ft | 382 kts | 260° |
| 2026-04-30 21:21 | 41.05040 | 18.62795 | 33787 ft | 383 kts | 259° |
| 2026-04-30 21:21 | 41.03731 | 18.56192 | 34219 ft | 387 kts | 260° |
| 2026-04-30 21:22 | 41.03075 | 18.52892 | 34359 ft | 390 kts | 259° |
| 2026-04-30 21:22 | 41.01053 | 18.42757 | 34909 ft | 395 kts | 259° |
| 2026-04-30 21:23 | 41.00377 | 18.39377 | 35060 ft | 398 kts | 260° |
| 2026-04-30 21:23 | 40.98302 | 18.29048 | 35111 ft | 399 kts | 259° |
| 2026-04-30 21:24 | 40.96899 | 18.22114 | 35120 ft | 396 kts | 259° |
| 2026-04-30 21:24 | 40.95490 | 18.15141 | 35128 ft | 398 kts | 259° |
| 2026-04-30 21:25 | 40.93734 | 18.04609 | 35113 ft | 392 kts | 268° |
| 2026-04-30 21:26 | 40.93772 | 17.93952 | 35111 ft | 391 kts | 275° |
| 2026-04-30 21:27 | 40.94320 | 17.83337 | 35134 ft | 390 kts | 276° |
| 2026-04-30 21:27 | 40.94665 | 17.76392 | 35131 ft | 390 kts | 276° |
| 2026-04-30 21:28 | 40.95134 | 17.66154 | 35142 ft | 390 kts | 276° |
| 2026-04-30 21:29 | 40.95585 | 17.55759 | 35142 ft | 390 kts | 276° |
| 2026-04-30 21:30 | 40.96315 | 17.38369 | 35151 ft | 391 kts | 276° |
| 2026-04-30 21:31 | 40.97025 | 17.20827 | 35153 ft | 389 kts | 275° |
| 2026-04-30 21:32 | 40.97435 | 17.10340 | 35152 ft | 388 kts | 275° |
| 2026-04-30 21:32 | 40.97706 | 17.03270 | 35155 ft | 390 kts | 275° |
| 2026-04-30 21:33 | 40.98103 | 16.92700 | 35180 ft | 390 kts | 275° |
| 2026-04-30 21:34 | 40.98364 | 16.85645 | 35175 ft | 390 kts | 275° |
| 2026-04-30 21:34 | 40.98747 | 16.75028 | 35179 ft | 389 kts | 275° |
| 2026-04-30 21:35 | 40.98996 | 16.67946 | 35185 ft | 389 kts | 275° |
| 2026-04-30 21:35 | 40.99240 | 16.60882 | 35181 ft | 389 kts | 275° |
| 2026-04-30 21:36 | 40.99481 | 16.53803 | 35188 ft | 390 kts | 275° |
| 2026-04-30 21:37 | 40.99951 | 16.39671 | 35191 ft | 390 kts | 275° |
| 2026-04-30 21:37 | 41.00180 | 16.32612 | 35178 ft | 389 kts | 275° |
| 2026-04-30 21:38 | 41.00407 | 16.25521 | 35184 ft | 391 kts | 275° |
| 2026-04-30 21:38 | 41.00624 | 16.18487 | 35185 ft | 389 kts | 275° |
| 2026-04-30 21:39 | 41.00837 | 16.11440 | 35179 ft | 389 kts | 275° |
| 2026-04-30 21:39 | 41.01049 | 16.04346 | 35188 ft | 391 kts | 275° |
| 2026-04-30 21:40 | 41.01255 | 15.97291 | 35184 ft | 390 kts | 275° |
| 2026-04-30 21:40 | 41.01457 | 15.90193 | 35191 ft | 392 kts | 275° |
| 2026-04-30 21:41 | 41.01655 | 15.83128 | 35201 ft | 391 kts | 275° |
| 2026-04-30 21:41 | 41.01846 | 15.76088 | 35201 ft | 389 kts | 275° |
| 2026-04-30 21:42 | 41.02270 | 15.69037 | 35203 ft | 388 kts | 281° |
| 2026-04-30 21:42 | 41.03291 | 15.62118 | 35209 ft | 386 kts | 284° |
| 2026-04-30 21:43 | 41.04271 | 15.56394 | 35204 ft | 386 kts | 285° |
| 2026-04-30 21:43 | 41.05650 | 15.48331 | 35195 ft | 387 kts | 284° |
| 2026-04-30 21:44 | 41.06802 | 15.41435 | 35203 ft | 387 kts | 284° |
| 2026-04-30 21:44 | 41.07970 | 15.34376 | 35206 ft | 386 kts | 283° |
| 2026-04-30 21:45 | 41.09117 | 15.27374 | 35196 ft | 386 kts | 284° |
| 2026-04-30 21:45 | 41.10269 | 15.20316 | 35197 ft | 386 kts | 284° |
| 2026-04-30 21:46 | 41.11406 | 15.13352 | 35197 ft | 387 kts | 284° |
| 2026-04-30 21:46 | 41.12563 | 15.06306 | 35201 ft | 387 kts | 284° |
| 2026-04-30 21:47 | 41.13707 | 14.99325 | 35203 ft | 385 kts | 284° |
| 2026-04-30 21:47 | 41.14835 | 14.92417 | 35204 ft | 385 kts | 284° |
| 2026-04-30 21:48 | 41.15948 | 14.85555 | 35211 ft | 386 kts | 284° |
| 2026-04-30 21:48 | 41.17031 | 14.78674 | 35207 ft | 386 kts | 283° |
| 2026-04-30 21:49 | 41.18104 | 14.71738 | 35205 ft | 384 kts | 283° |
| 2026-04-30 21:49 | 41.19168 | 14.64856 | 35212 ft | 387 kts | 284° |
| 2026-04-30 21:50 | 41.20258 | 14.57902 | 35202 ft | 385 kts | 284° |
| 2026-04-30 21:50 | 41.21341 | 14.51031 | 35191 ft | 384 kts | 284° |
| 2026-04-30 21:51 | 41.22428 | 14.44129 | 35205 ft | 387 kts | 284° |
| 2026-04-30 21:51 | 41.23513 | 14.37182 | 35186 ft | 384 kts | 284° |
| 2026-04-30 21:52 | 41.24585 | 14.30285 | 35188 ft | 385 kts | 283° |
| 2026-04-30 21:52 | 41.25642 | 14.23459 | 35179 ft | 385 kts | 283° |
| 2026-04-30 21:53 | 41.26700 | 14.16589 | 35176 ft | 380 kts | 283° |
| 2026-04-30 21:53 | 41.27232 | 14.13119 | 35052 ft | 375 kts | 283° |
| 2026-04-30 21:53 | 41.27747 | 14.09754 | 34505 ft | 377 kts | 283° |
| 2026-04-30 21:54 | 41.28270 | 14.06341 | 33661 ft | 384 kts | 284° |
| 2026-04-30 21:54 | 41.28801 | 14.02954 | 32814 ft | 388 kts | 284° |
| 2026-04-30 21:54 | 41.29506 | 13.99545 | 32065 ft | 389 kts | 290° |
| 2026-04-30 21:54 | 41.30662 | 13.96236 | 31331 ft | 388 kts | 301° |
| 2026-04-30 21:55 | 41.32263 | 13.93384 | 30863 ft | 383 kts | 308° |
| 2026-04-30 21:55 | 41.34024 | 13.90761 | 30301 ft | 381 kts | 310° |
| 2026-04-30 21:55 | 41.35823 | 13.88232 | 29697 ft | 378 kts | 311° |
| 2026-04-30 21:55 | 41.37648 | 13.85705 | 29055 ft | 377 kts | 311° |
| 2026-04-30 21:56 | 41.39451 | 13.83206 | 28487 ft | 373 kts | 312° |
| 2026-04-30 21:56 | 41.41241 | 13.80714 | 27860 ft | 371 kts | 312° |
| 2026-04-30 21:56 | 41.43026 | 13.78215 | 27280 ft | 368 kts | 312° |
| 2026-04-30 21:56 | 41.44781 | 13.75746 | 26711 ft | 365 kts | 312° |
| 2026-04-30 21:57 | 41.46526 | 13.73283 | 26073 ft | 363 kts | 312° |
| 2026-04-30 21:57 | 41.48248 | 13.70841 | 25498 ft | 361 kts | 312° |
| 2026-04-30 21:57 | 41.49958 | 13.68413 | 24896 ft | 359 kts | 313° |
| 2026-04-30 21:57 | 41.51653 | 13.66004 | 24287 ft | 357 kts | 313° |
| 2026-04-30 21:58 | 41.53351 | 13.63586 | 23702 ft | 355 kts | 313° |
| 2026-04-30 21:58 | 41.55032 | 13.61191 | 23134 ft | 352 kts | 313° |
| 2026-04-30 21:58 | 41.56686 | 13.58835 | 22514 ft | 350 kts | 313° |
| 2026-04-30 21:58 | 41.58341 | 13.56474 | 21918 ft | 349 kts | 313° |
| 2026-04-30 21:59 | 41.59996 | 13.54111 | 21331 ft | 346 kts | 313° |
| 2026-04-30 21:59 | 41.61623 | 13.51786 | 20748 ft | 344 kts | 314° |
| 2026-04-30 21:59 | 41.63241 | 13.49473 | 20180 ft | 343 kts | 314° |
| 2026-04-30 22:00 | 41.66481 | 13.44834 | 18958 ft | 341 kts | 314° |
| 2026-04-30 22:00 | 41.69672 | 13.40255 | 17960 ft | 333 kts | 314° |
| 2026-04-30 22:00 | 41.71220 | 13.38029 | 17810 ft | 319 kts | 314° |
| 2026-04-30 22:01 | 41.72689 | 13.35915 | 17663 ft | 307 kts | 314° |
| 2026-04-30 22:01 | 41.74116 | 13.33859 | 17556 ft | 294 kts | 314° |
| 2026-04-30 22:01 | 41.75482 | 13.31888 | 17290 ft | 288 kts | 314° |
| 2026-04-30 22:01 | 41.76815 | 13.29964 | 16829 ft | 289 kts | 314° |
| 2026-04-30 22:02 | 41.78170 | 13.28009 | 16387 ft | 289 kts | 314° |
| 2026-04-30 22:02 | 41.79499 | 13.26089 | 15976 ft | 288 kts | 314° |
| 2026-04-30 22:02 | 41.80833 | 13.24160 | 15536 ft | 287 kts | 314° |
| 2026-04-30 22:02 | 41.82160 | 13.22241 | 15104 ft | 287 kts | 314° |
| 2026-04-30 22:03 | 41.83488 | 13.20318 | 14711 ft | 286 kts | 314° |
| 2026-04-30 22:03 | 41.84802 | 13.18413 | 14265 ft | 287 kts | 314° |
| 2026-04-30 22:03 | 41.86138 | 13.16476 | 13838 ft | 287 kts | 315° |
| 2026-04-30 22:03 | 41.87481 | 13.14527 | 13492 ft | 283 kts | 315° |
| 2026-04-30 22:04 | 41.88808 | 13.12601 | 13055 ft | 284 kts | 315° |
| 2026-04-30 22:04 | 41.90134 | 13.10674 | 12655 ft | 283 kts | 315° |
| 2026-04-30 22:04 | 41.92782 | 13.06824 | 11860 ft | 281 kts | 315° |
| 2026-04-30 22:05 | 41.94086 | 13.04926 | 11472 ft | 280 kts | 315° |
| 2026-04-30 22:05 | 41.95387 | 13.03031 | 11074 ft | 279 kts | 315° |
| 2026-04-30 22:05 | 41.96670 | 13.01160 | 10672 ft | 278 kts | 315° |
| 2026-04-30 22:05 | 41.97963 | 12.99276 | 10386 ft | 273 kts | 315° |
| 2026-04-30 22:06 | 41.99231 | 12.97421 | 10240 ft | 263 kts | 315° |
| 2026-04-30 22:06 | 42.01701 | 12.93815 | 9477 ft | 263 kts | 315° |
| 2026-04-30 22:06 | 42.02826 | 12.91944 | 9334 ft | 256 kts | 305° |
| 2026-04-30 22:07 | 42.03502 | 12.89849 | 9100 ft | 255 kts | 288° |
| 2026-04-30 22:07 | 42.03891 | 12.87505 | 8677 ft | 259 kts | 284° |
| 2026-04-30 22:07 | 42.04224 | 12.85186 | 8464 ft | 253 kts | 284° |
| 2026-04-30 22:07 | 42.04565 | 12.83008 | 8101 ft | 254 kts | 286° |
| 2026-04-30 22:08 | 42.04955 | 12.80728 | 7767 ft | 253 kts | 286° |
| 2026-04-30 22:08 | 42.05355 | 12.78457 | 7576 ft | 246 kts | 287° |
| 2026-04-30 22:08 | 42.05743 | 12.76260 | 7265 ft | 247 kts | 287° |
| 2026-04-30 22:08 | 42.06146 | 12.73985 | 6895 ft | 248 kts | 287° |
| 2026-04-30 22:09 | 42.06530 | 12.71793 | 6835 ft | 236 kts | 287° |
| 2026-04-30 22:09 | 42.06891 | 12.69719 | 6739 ft | 227 kts | 287° |
| 2026-04-30 22:09 | 42.07240 | 12.67716 | 6583 ft | 220 kts | 287° |
| 2026-04-30 22:09 | 42.07585 | 12.65747 | 6435 ft | 212 kts | 287° |
| 2026-04-30 22:10 | 42.07914 | 12.63865 | 6256 ft | 207 kts | 287° |
| 2026-04-30 22:10 | 42.08251 | 12.61956 | 5789 ft | 217 kts | 287° |
| 2026-04-30 22:10 | 42.08590 | 12.60017 | 5543 ft | 217 kts | 287° |
| 2026-04-30 22:10 | 42.08940 | 12.58005 | 5409 ft | 228 kts | 286° |
| 2026-04-30 22:11 | 42.09164 | 12.53858 | 4942 ft | 231 kts | 252° |
| 2026-04-30 22:11 | 42.08330 | 12.52160 | 4705 ft | 232 kts | 222° |
| 2026-04-30 22:11 | 42.07091 | 12.51089 | 4515 ft | 230 kts | 204° |
| 2026-04-30 22:12 | 42.05738 | 12.50367 | 4348 ft | 232 kts | 199° |
| 2026-04-30 22:12 | 42.04350 | 12.49708 | 4185 ft | 231 kts | 199° |
| 2026-04-30 22:12 | 42.03007 | 12.49071 | 4024 ft | 225 kts | 199° |
| 2026-04-30 22:12 | 42.01691 | 12.48434 | 3868 ft | 220 kts | 199° |
| 2026-04-30 22:13 | 42.00371 | 12.47788 | 3697 ft | 214 kts | 199° |
| 2026-04-30 22:13 | 41.99115 | 12.47226 | 3543 ft | 208 kts | 191° |
| 2026-04-30 22:13 | 41.97849 | 12.47271 | 3395 ft | 200 kts | 160° |
| 2026-04-30 22:13 | 41.96675 | 12.47984 | 3262 ft | 193 kts | 151° |
| 2026-04-30 22:14 | 41.95594 | 12.48721 | 3115 ft | 186 kts | 152° |
| 2026-04-30 22:14 | 41.94562 | 12.49417 | 3012 ft | 178 kts | 151° |
| 2026-04-30 22:14 | 41.93578 | 12.50091 | 3002 ft | 175 kts | 151° |
| 2026-04-30 22:14 | 41.92589 | 12.50773 | 2974 ft | 178 kts | 151° |
| 2026-04-30 22:15 | 41.91590 | 12.51461 | 2778 ft | 179 kts | 150° |
| 2026-04-30 22:15 | 41.90580 | 12.52158 | 2540 ft | 174 kts | 151° |
| 2026-04-30 22:15 | 41.89575 | 12.52848 | 2306 ft | 163 kts | 151° |
| 2026-04-30 22:15 | 41.88642 | 12.53490 | 2090 ft | 154 kts | 150° |
| 2026-04-30 22:16 | 41.87750 | 12.54105 | 1904 ft | 149 kts | 150° |
| 2026-04-30 22:16 | 41.86864 | 12.54718 | 1708 ft | 149 kts | 150° |
| 2026-04-30 22:17 | 41.84179 | 12.56566 | 1120 ft | 149 kts | 151° |
| 2026-04-30 22:17 | 41.83272 | 12.57191 | 925 ft | 149 kts | 152° |
| 2026-04-30 22:17 | 41.81486 | 12.58416 | 513 ft | 149 kts | 152° |
| 2026-04-30 22:18 | 41.80587 | 12.59032 | 365 ft | 142 kts | 151° |
| 2026-04-30 22:18 | 41.79491 | 12.59798 | 417 ft | 45 kts | 155° |
| 2026-04-30 22:19 | 41.79102 | 12.60055 | 427 ft | 4 kts | 169° |
| 2026-04-30 22:19 | 41.79054 | 12.60032 | 426 ft | 10 kts | 232° |
| 2026-04-30 22:19 | 41.79082 | 12.59868 | 424 ft | 11 kts | 333° |
| 2026-04-30 22:20 | 41.79155 | 12.59820 | 422 ft | 12 kts | 334° |
| 2026-04-30 22:20 | 41.79312 | 12.59710 | 417 ft | 14 kts | 333° |
| 2026-04-30 22:20 | 41.79402 | 12.59648 | 413 ft | 16 kts | 333° |
| 2026-04-30 22:21 | 41.79502 | 12.59580 | 409 ft | 18 kts | 333° |
| 2026-04-30 22:21 | 41.79616 | 12.59502 | 403 ft | 20 kts | 334° |
| 2026-04-30 22:21 | 41.79747 | 12.59412 | 395 ft | 23 kts | 333° |
| 2026-04-30 22:21 | 41.79878 | 12.59321 | 386 ft | 10 kts | 332° |
| 2026-04-30 22:22 | 41.79957 | 12.59266 | 379 ft | 15 kts | 333° |
| 2026-04-30 22:22 | 41.80062 | 12.59193 | 371 ft | 19 kts | 333° |
| 2026-04-30 22:22 | 41.80158 | 12.59128 | 366 ft | 11 kts | 331° |
| 2026-04-30 22:22 | 41.80165 | 12.59055 | 364 ft | 9 kts | 233° |
| 2026-04-30 22:23 | 41.80125 | 12.58987 | 364 ft | 8 kts | 232° |
| 2026-04-30 22:23 | 41.80098 | 12.58977 | 365 ft | 2 kts | 142° |
| 2026-04-30 22:23 | 41.80087 | 12.58988 | 366 ft | 2 kts | 142° |
| 2026-04-30 22:23 | 41.80071 | 12.59013 | 367 ft | 2 kts | 121° |
| 2026-04-30 22:24 | 41.80070 | 12.59015 | 367 ft | 0 kts | 121° |